Time;durP1;ratioP1;P1;durP2;ratioP2;P2;SDS_P1;SDS_P2;PMS_P1;PMS_P2;Temp;Humidity;BMP_temperature;BMP_pressure;BME280_temperature;BME280_humidity;BME280_pressure;Samples;Min_cycle;Max_cycle;Signal;HPM_P1;HPM_P2
2022/04/23 01:43:39;;;;;;;1.70;1.17;;;;;;;5.64;100.00;93440.28;5412382;23;20051;-87
2022/04/23 01:46:05;;;;;;;1.92;1.00;;;;;;;5.70;100.00;93441.06;4995861;28;20043;-88
2022/04/23 01:48:30;;;;;;;1.55;1.33;;;;;;;5.69;100.00;93434.31;5004806;28;20026;-88
2022/04/23 01:50:56;;;;;;;3.75;0.98;;;;;;;5.58;100.00;93447.28;4991076;28;20029;-90
2022/04/23 01:53:24;;;;;;;2.30;1.10;;;;;;;5.70;100.00;93447.03;5017409;28;20026;-87
2022/04/23 01:55:56;;;;;;;0.93;0.80;;;;;;;5.65;100.00;93444.44;4998472;28;20374;-88
2022/04/23 01:58:22;;;;;;;1.23;0.82;;;;;;;5.61;100.00;93438.22;5017203;28;20026;-87
2022/04/23 02:00:49;;;;;;;2.13;1.25;;;;;;;5.63;100.00;93436.13;5015166;28;20033;-87
2022/04/23 02:03:14;;;;;;;2.30;1.20;;;;;;;5.60;100.00;93436.66;5004822;28;20089;-89
2022/04/23 02:05:40;;;;;;;1.40;1.00;;;;;;;5.61;100.00;93433.78;5000861;28;20048;-88
2022/04/23 02:08:05;;;;;;;2.10;1.20;;;;;;;5.65;100.00;93434.03;5001251;28;20021;-88
2022/04/23 02:10:31;;;;;;;4.15;1.38;;;;;;;5.76;100.00;93430.41;4995276;28;20040;-88
2022/04/23 02:12:57;;;;;;;1.30;0.93;;;;;;;5.89;100.00;93430.94;4984701;28;20030;-88
2022/04/23 02:15:23;;;;;;;2.70;0.88;;;;;;;5.94;100.00;93420.53;4984616;28;20025;-90
2022/04/23 02:17:49;;;;;;;1.58;1.00;;;;;;;5.98;100.00;93416.38;4984223;28;20048;-88
2022/04/23 02:20:18;;;;;;;2.75;1.20;;;;;;;5.91;100.00;93423.66;4984620;28;20032;-88
2022/04/23 02:22:44;;;;;;;2.97;1.58;;;;;;;5.87;100.00;93420.00;4984631;28;20443;-88
2022/04/23 02:25:11;;;;;;;2.58;1.33;;;;;;;5.92;100.00;93428.59;4984125;28;20026;-87
2022/04/23 02:27:47;;;;;;;1.77;1.23;;;;;;;5.90;100.00;93424.69;4989654;28;20109;-87
2022/04/23 02:30:14;;;;;;;3.00;1.52;;;;;;;5.77;100.00;93426.78;5016762;28;20061;-88
2022/04/23 02:32:41;;;;;;;2.50;1.58;;;;;;;5.80;100.00;93428.84;5017233;28;20025;-89
2022/04/23 02:35:06;;;;;;;3.03;2.10;;;;;;;5.93;100.00;93429.38;5016927;28;20057;-87
2022/04/23 02:37:34;;;;;;;9.68;2.05;;;;;;;6.06;100.00;93431.47;4999396;28;20060;-87
2022/04/23 02:40:03;;;;;;;5.70;3.30;;;;;;;6.36;100.00;93426.47;4984663;28;20125;-88
2022/04/23 02:42:29;;;;;;;4.05;2.33;;;;;;;6.48;100.00;93413.97;4984253;28;20033;-89
2022/04/23 02:44:55;;;;;;;3.35;2.28;;;;;;;6.81;100.00;93410.22;4984269;28;20407;-87
2022/04/23 02:47:21;;;;;;;4.75;2.45;;;;;;;6.60;100.00;93418.09;4984167;28;20025;-87
2022/04/23 02:49:47;;;;;;;4.68;2.45;;;;;;;6.50;100.00;93417.06;4984337;28;20028;-88
2022/04/23 02:52:12;;;;;;;5.45;2.53;;;;;;;6.64;100.00;93416.53;5000601;28;20026;-89
2022/04/23 02:54:38;;;;;;;4.50;2.50;;;;;;;6.46;100.00;93423.09;4984131;28;20029;-88
2022/04/23 02:57:04;;;;;;;5.85;2.90;;;;;;;6.35;100.00;93422.31;4984164;28;20316;-88
2022/04/23 02:59:30;;;;;;;4.13;2.45;;;;;;;6.23;100.00;93431.19;4984017;28;20022;-90
2022/04/23 03:01:56;;;;;;;4.05;1.60;;;;;;;6.15;100.00;93438.75;4999966;28;20048;-88
2022/04/23 03:04:21;;;;;;;1.92;1.23;;;;;;;6.14;100.00;93430.16;5004000;28;20022;-88
2022/04/23 03:06:47;;;;;;;1.38;0.98;;;;;;;6.20;100.00;93426.50;5004002;28;20113;-90
2022/04/23 03:09:12;;;;;;;1.73;1.00;;;;;;;6.22;100.00;93431.47;5003846;28;20029;-90
2022/04/23 03:11:38;;;;;;;1.85;1.05;;;;;;;6.36;100.00;93429.88;5003942;28;20029;-88
2022/04/23 03:14:04;;;;;;;1.10;1.00;;;;;;;6.28;100.00;93419.22;5002643;28;20030;-88
2022/04/23 03:16:29;;;;;;;7.15;1.20;;;;;;;6.29;100.00;93429.34;5011706;28;20029;-89
2022/04/23 03:18:58;;;;;;;2.13;1.10;;;;;;;6.23;100.00;93425.97;5019882;28;20030;-88
2022/04/23 03:21:24;;;;;;;1.75;1.15;;;;;;;6.20;100.00;93423.16;5009734;28;20033;-88
2022/04/23 03:23:50;;;;;;;1.40;0.90;;;;;;;6.23;100.00;93427.81;4999585;28;20125;-88
2022/04/23 03:26:15;;;;;;;1.70;1.00;;;;;;;6.24;100.00;93418.97;4987586;28;20026;-87
2022/04/23 03:28:41;;;;;;;1.65;1.15;;;;;;;6.32;100.00;93423.66;5004081;28;20022;-89
2022/04/23 03:31:08;;;;;;;1.60;1.13;;;;;;;6.34;100.00;93418.97;5003717;28;20342;-91
2022/04/23 03:33:34;;;;;;;2.28;1.38;;;;;;;6.30;100.00;93417.91;4987479;28;20030;-88
2022/04/23 03:36:00;;;;;;;1.83;1.10;;;;;;;6.27;100.00;93426.25;4987377;28;20057;-87
2022/04/23 03:38:26;;;;;;;3.03;1.38;;;;;;;6.27;100.00;93422.88;4987509;28;20053;-87
2022/04/23 03:40:54;;;;;;;4.47;1.90;;;;;;;6.18;100.00;93428.59;4987344;28;20060;-87
2022/04/23 03:43:20;;;;;;;5.65;1.60;;;;;;;6.25;100.00;93433.53;4987768;28;20025;-88
2022/04/23 03:45:47;;;;;;;3.13;1.35;;;;;;;6.31;100.00;93435.09;5002147;28;20057;-88
2022/04/23 03:48:14;;;;;;;2.45;1.25;;;;;;;6.25;100.00;93428.31;5003408;28;20025;-88
2022/04/23 03:50:42;;;;;;;1.30;0.82;;;;;;;6.18;100.00;93435.63;4987295;28;20068;-89
2022/04/23 03:53:08;;;;;;;2.38;1.10;;;;;;;6.16;100.00;93446.28;4987198;28;20493;-87
2022/04/23 03:55:34;;;;;;;3.10;1.10;;;;;;;6.24;100.00;93450.19;5003093;28;20084;-88
2022/04/23 03:58:01;;;;;;;1.50;0.93;;;;;;;6.25;100.00;93451.75;5002973;28;20486;-87
2022/04/23 04:00:28;;;;;;;1.45;1.23;;;;;;;6.32;100.00;93457.47;4987086;28;20038;-87
2022/04/23 04:02:55;;;;;;;0.85;0.60;;;;;;;6.26;100.00;93457.72;5003305;28;20029;-88
2022/04/23 04:05:22;;;;;;;1.65;0.77;;;;;;;6.26;100.00;93460.34;4986644;28;20026;-88
2022/04/23 04:07:48;;;;;;;0.93;0.80;;;;;;;6.19;100.00;93458.75;4986944;28;20591;-87
2022/04/23 04:10:16;;;;;;;1.65;0.80;;;;;;;6.15;100.00;93462.16;5002920;28;20120;-88
2022/04/23 04:12:42;;;;;;;1.55;0.82;;;;;;;6.10;100.00;93465.56;5002582;28;20034;-87
2022/04/23 04:15:17;;;;;;;0.85;0.82;;;;;;;6.20;100.00;93475.94;4991529;28;20041;-87
2022/04/23 04:17:44;;;;;;;1.10;0.90;;;;;;;6.12;100.00;93473.06;4983341;28;20048;-88
2022/04/23 04:20:12;;;;;;;1.88;1.08;;;;;;;6.15;100.00;93462.16;4983398;28;20028;-87
2022/04/23 04:22:42;;;;;;;3.95;0.80;;;;;;;6.03;100.00;93462.41;4983461;28;20034;-89
2022/04/23 04:25:10;;;;;;;3.58;1.10;;;;;;;5.91;100.00;93473.06;4983191;28;20033;-88
2022/04/23 04:27:36;;;;;;;1.70;1.02;;;;;;;5.91;100.00;93479.03;4983263;28;20030;-87
2022/04/23 04:30:03;;;;;;;1.40;0.95;;;;;;;6.12;100.00;93466.06;4983632;28;20188;-88
2022/04/23 04:32:29;;;;;;;2.75;1.20;;;;;;;6.10;100.00;93469.97;4982994;28;20343;-88
2022/04/23 04:34:54;;;;;;;1.95;1.25;;;;;;;6.05;100.00;93471.53;4966941;28;20033;-88
2022/04/23 04:37:20;;;;;;;1.80;1.17;;;;;;;6.17;100.00;93480.88;4982810;28;20084;-89
2022/04/23 04:39:45;;;;;;;1.50;1.15;;;;;;;6.15;100.00;93477.75;4966808;28;20030;-88
2022/04/23 04:42:11;;;;;;;2.72;1.60;;;;;;;6.24;100.00;93476.19;4982945;28;20447;-88
2022/04/23 04:44:37;;;;;;;1.13;0.80;;;;;;;6.19;100.00;93471.00;4982854;28;20034;-87
2022/04/23 04:47:04;;;;;;;1.70;0.90;;;;;;;6.18;100.00;93482.44;4967090;28;20022;-87
2022/04/23 04:49:30;;;;;;;1.77;0.90;;;;;;;6.04;100.00;93482.97;4982802;28;20033;-87
2022/04/23 04:51:59;;;;;;;1.25;0.90;;;;;;;6.08;100.00;93478.81;4966779;28;20030;-87
2022/04/23 04:54:24;;;;;;;2.05;1.38;;;;;;;6.00;100.00;93476.69;4966687;28;20037;-89
2022/04/23 04:56:51;;;;;;;1.02;0.93;;;;;;;6.07;100.00;93474.66;4982392;28;20034;-87
2022/04/23 04:59:17;;;;;;;1.20;1.00;;;;;;;6.14;100.00;93468.38;4982494;28;20141;-87
2022/04/23 05:01:42;;;;;;;1.15;1.05;;;;;;;6.19;100.00;93463.97;4982494;28;20037;-87
2022/04/23 05:04:08;;;;;;;4.90;1.23;;;;;;;6.25;100.00;93459.53;4998638;28;20034;-87
2022/04/23 05:06:33;;;;;;;3.17;1.40;;;;;;;6.08;100.00;93457.19;4966571;28;20030;-87
2022/04/23 05:08:59;;;;;;;2.58;1.45;;;;;;;6.13;100.00;93457.22;4982791;28;20033;-92
2022/04/23 05:11:24;;;;;;;1.45;1.20;;;;;;;6.12;100.00;93457.47;4992440;28;20025;-87
2022/04/23 05:13:51;;;;;;;1.98;1.52;;;;;;;6.11;100.00;93454.09;5001608;28;20033;-88
2022/04/23 05:16:16;;;;;;;3.35;1.63;;;;;;;6.16;100.00;93450.69;5001263;28;20059;-87
2022/04/23 05:18:42;;;;;;;2.70;2.00;;;;;;;6.23;100.00;93448.63;4985016;28;20038;-87
2022/04/23 05:21:07;;;;;;;4.40;1.80;;;;;;;6.23;100.00;93456.44;4985294;28;20033;-86
2022/04/23 05:23:42;;;;;;;3.63;2.10;;;;;;;6.34;100.00;93459.78;4985038;28;20030;-86
2022/04/23 05:26:09;;;;;;;2.83;2.00;;;;;;;6.51;100.00;93457.66;4984513;28;20124;-85
2022/04/23 05:28:35;;;;;;;4.22;2.05;;;;;;;6.68;100.00;93459.22;4985306;28;20022;-86
2022/04/23 05:31:01;;;;;;;2.65;2.03;;;;;;;6.75;100.00;93459.72;5001378;28;20423;-86
2022/04/23 05:33:26;;;;;;;2.47;2.00;;;;;;;6.90;100.00;93456.28;4984935;28;20021;-87
2022/04/23 05:35:52;;;;;;;2.80;1.70;;;;;;;6.90;100.00;93471.13;4984967;28;20022;-87
2022/04/23 05:38:21;;;;;;;2.75;1.80;;;;;;;6.89;100.00;93474.75;4985264;28;20049;-86
2022/04/23 05:40:50;;;;;;;4.82;2.08;;;;;;;6.91;100.00;93486.50;4984691;28;20022;-87
2022/04/23 05:43:16;;;;;;;4.28;2.03;;;;;;;7.00;100.00;93501.56;4985164;28;20026;-86
2022/04/23 05:45:43;;;;;;;5.72;2.40;;;;;;;7.03;100.00;93499.19;4984337;28;20037;-86
2022/04/23 05:48:08;;;;;;;2.70;2.00;;;;;;;7.14;100.00;93504.38;4981539;28;20026;-87
2022/04/23 05:50:34;;;;;;;5.22;2.05;;;;;;;7.34;100.00;93506.88;4981315;28;20340;-86
2022/04/23 05:52:59;;;;;;;2.60;1.75;;;;;;;7.47;100.00;93504.75;4964983;28;20033;-87
2022/04/23 05:55:25;;;;;;;4.80;1.67;;;;;;;7.64;100.00;93515.59;4965197;28;20026;-86
2022/04/23 05:57:50;;;;;;;3.80;1.80;;;;;;;7.70;100.00;93511.16;4964704;28;20058;-86
2022/04/23 06:00:16;;;;;;;3.60;1.35;;;;;;;8.55;100.00;93510.31;4968311;28;20449;-87
2022/04/23 06:02:42;;;;;;;3.45;1.48;;;;;;;9.29;100.00;93496.22;4997452;28;20026;-86
2022/04/23 06:05:24;;;;;;;2.30;1.30;;;;;;;9.68;100.00;93502.25;4981025;28;20030;-87
2022/04/23 06:07:50;;;;;;;4.20;1.40;;;;;;;9.72;100.00;93506.66;4984461;28;20435;-87
2022/04/23 06:10:16;;;;;;;3.03;1.00;;;;;;;10.14;100.00;93506.06;5000333;28;20029;-86
2022/04/23 06:12:42;;;;;;;5.07;1.30;;;;;;;10.42;100.00;93506.97;5000165;28;20116;-87
2022/04/23 06:15:09;;;;;;;4.10;1.10;;;;;;;10.39;100.00;93509.34;4984658;28;20025;-86
2022/04/23 06:17:35;;;;;;;4.72;1.20;;;;;;;10.54;100.00;93511.75;4999795;28;20029;-87
2022/04/23 06:20:01;;;;;;;0.90;0.80;;;;;;;10.55;100.00;93508.06;4984330;28;20331;-87
2022/04/23 06:22:26;;;;;;;1.50;0.80;;;;;;;10.56;100.00;93501.75;4984119;28;20103;-87
2022/04/23 06:24:52;;;;;;;2.85;1.00;;;;;;;10.80;100.00;93500.06;4984332;28;20026;-86
2022/04/23 06:27:18;;;;;;;6.20;0.98;;;;;;;10.85;100.00;93505.97;4983784;28;20358;-86
2022/04/23 06:29:43;;;;;;;4.97;0.95;;;;;;;10.77;100.00;93498.81;4983918;28;20447;-86
2022/04/23 06:32:10;;;;;;;4.57;0.90;;;;;;;10.95;100.00;93512.88;4983855;28;20119;-86
2022/04/23 06:34:38;;;;;;;2.53;0.90;;;;;;;11.15;100.00;93516.97;4983980;28;20385;-87
2022/04/23 06:37:04;;;;;;;2.95;1.23;;;;;;;11.37;100.00;93520.78;4983279;28;20030;-86
2022/04/23 06:39:30;;;;;;;3.63;0.80;;;;;;;11.48;100.00;93513.47;4983538;28;20128;-86
2022/04/23 06:41:55;;;;;;;3.80;0.98;;;;;;;11.16;100.00;93513.28;5015923;28;20496;-86
2022/04/23 06:44:21;;;;;;;5.10;0.82;;;;;;;11.24;100.00;93522.31;4999657;28;20032;-86
2022/04/23 06:46:46;;;;;;;3.35;0.90;;;;;;;11.31;100.00;93516.69;4999463;28;20163;-87
2022/04/23 06:49:21;;;;;;;3.30;1.05;;;;;;;11.52;100.00;93511.03;5000132;28;20028;-92
2022/04/23 06:51:46;;;;;;;1.52;1.05;;;;;;;11.11;100.00;93517.84;4985149;28;20347;-86
2022/04/23 06:54:12;;;;;;;1.63;1.02;;;;;;;11.40;100.00;93520.19;4999509;28;20026;-88
2022/04/23 06:56:39;;;;;;;2.03;0.90;;;;;;;11.37;100.00;93518.16;4984008;28;20036;-87
2022/04/23 06:59:04;;;;;;;2.72;1.15;;;;;;;11.61;100.00;93522.38;5016126;28;20124;-87
2022/04/23 07:01:30;;;;;;;1.77;0.95;;;;;;;11.87;100.00;93509.50;4983782;28;20165;-87
2022/04/23 07:03:55;;;;;;;7.35;1.38;;;;;;;11.69;100.00;93521.69;5017276;28;20033;-87
2022/04/23 07:06:21;;;;;;;1.15;0.85;;;;;;;12.08;100.00;93519.56;4983839;28;20450;-87
2022/04/23 07:08:46;;;;;;;1.60;0.90;;;;;;;12.17;100.00;93522.25;4983999;28;20103;-89
2022/04/23 07:11:12;;;;;;;1.15;0.95;;;;;;;12.39;100.00;93534.63;4998617;28;20025;-88
2022/04/23 07:13:38;;;;;;;2.38;1.05;;;;;;;12.31;100.00;93538.00;4984287;28;20034;-89
2022/04/23 07:16:04;;;;;;;1.63;0.98;;;;;;;12.89;100.00;93534.75;5000127;28;20029;-88
2022/04/23 07:18:31;;;;;;;3.50;1.02;;;;;;;13.22;100.00;93548.38;4983703;28;20124;-90
2022/04/23 07:20:57;;;;;;;1.45;1.08;;;;;;;13.39;100.00;93542.41;4984137;28;20029;-89
2022/04/23 07:26:06;;;;;;;2.10;1.00;;;;;;;13.57;100.00;93547.75;5002792;28;20096;-89
2022/04/23 07:28:32;;;;;;;2.05;0.80;;;;;;;13.43;100.00;93553.13;4984033;28;20018;-90
2022/04/23 07:31:00;;;;;;;3.97;0.90;;;;;;;13.19;100.00;93562.13;5000360;28;20084;-89
2022/04/23 07:38:54;;;;;;;1.08;0.80;;;;;;;14.02;100.00;93574.94;5002177;28;20049;-89
2022/04/23 07:41:19;;;;;;;2.83;1.08;;;;;;;14.01;100.00;93576.81;4983797;28;20022;-87
2022/04/23 07:43:45;;;;;;;3.63;1.30;;;;;;;13.67;100.00;93576.44;4983573;28;20100;-88
2022/04/23 07:46:10;;;;;;;2.15;1.00;;;;;;;13.50;100.00;93574.50;4983497;28;20026;-88
2022/04/23 07:48:36;;;;;;;2.80;1.20;;;;;;;13.52;100.00;93577.59;5000439;28;20022;-88
2022/04/23 07:51:04;;;;;;;2.97;1.17;;;;;;;13.76;100.00;93580.91;5003403;28;20026;-88
2022/04/23 07:53:30;;;;;;;3.65;1.23;;;;;;;14.20;100.00;93573.88;5003552;28;20331;-88
2022/04/23 07:55:56;;;;;;;3.65;1.40;;;;;;;13.94;100.00;93579.91;4987252;28;20037;-89
2022/04/23 07:58:22;;;;;;;3.50;1.60;;;;;;;14.25;100.00;93581.63;4987049;28;20029;-88
2022/04/23 08:00:47;;;;;;;6.50;2.47;;;;;;;14.10;100.00;93589.97;4987440;28;20034;-89
2022/04/23 08:03:13;;;;;;;3.10;1.67;;;;;;;14.51;100.00;93594.03;5003716;28;20026;-88
2022/04/23 08:05:38;;;;;;;3.83;1.50;;;;;;;14.66;100.00;93590.13;4986957;28;20030;-88
2022/04/23 08:08:04;;;;;;;3.20;1.50;;;;;;;14.81;100.00;93590.78;4987008;28;20038;-88
2022/04/23 08:10:33;;;;;;;1.60;1.20;;;;;;;15.40;100.00;93597.28;4987213;28;20029;-89
2022/04/23 08:12:59;;;;;;;1.95;1.08;;;;;;;15.50;100.00;93596.19;5002757;28;20409;-87
2022/04/23 08:15:26;;;;;;;7.32;1.23;;;;;;;15.06;100.00;93589.19;4986892;28;20117;-89
2022/04/23 08:17:54;;;;;;;1.92;0.82;;;;;;;14.93;100.00;93584.88;4986546;28;20057;-88
2022/04/23 08:20:20;;;;;;;2.45;0.98;;;;;;;15.19;100.00;93590.06;4986527;28;20029;-90
2022/04/23 08:22:46;;;;;;;3.92;1.10;;;;;;;15.46;100.00;93582.84;4986777;28;20129;-89
2022/04/23 08:25:11;;;;;;;1.13;0.82;;;;;;;15.54;100.00;93582.03;4986937;28;20034;-90
2022/04/23 08:27:50;;;;;;;1.80;0.73;;;;;;;15.10;100.00;93582.19;5002893;28;20033;-88
2022/04/23 08:30:34;;;;;;;2.38;1.00;;;;;;;15.18;100.00;93579.81;5019149;28;20029;-89
2022/04/23 08:33:01;;;;;;;2.08;0.80;;;;;;;14.98;100.00;93569.63;5005224;28;20427;-88
2022/04/23 08:35:27;;;;;;;2.30;0.90;;;;;;;14.27;100.00;93595.25;5002601;28;20026;-90
2022/04/23 08:37:52;;;;;;;4.55;1.10;;;;;;;13.50;100.00;93594.81;5002213;28;20032;-90
2022/04/23 08:40:19;;;;;;;5.35;1.05;;;;;;;13.65;100.00;93601.50;5002465;28;20034;-89
2022/04/23 08:42:44;;;;;;;4.35;1.10;;;;;;;13.64;100.00;93607.84;4986461;28;20144;-89
2022/04/23 08:45:12;;;;;;;4.55;1.00;;;;;;;13.61;100.00;93608.44;5002450;28;20450;-90
2022/04/23 08:47:41;;;;;;;4.72;1.05;;;;;;;13.23;100.00;93610.44;5002599;28;20026;-90
2022/04/23 08:50:08;;;;;;;3.80;1.10;;;;;;;13.39;100.00;93608.19;4986205;28;20030;-88
2022/04/23 08:52:34;;;;;;;6.38;1.20;;;;;;;13.70;100.00;93596.88;4986785;28;20030;-88
2022/04/23 08:55:01;;;;;;;3.88;1.42;;;;;;;13.74;100.00;93604.16;4986317;28;20040;-92
2022/04/23 08:57:29;;;;;;;2.38;1.05;;;;;;;13.81;100.00;93601.84;4985813;28;20026;-89
2022/04/23 08:59:56;;;;;;;1.92;0.93;;;;;;;14.07;100.00;93599.25;5002409;28;20053;-89
2022/04/23 09:02:26;;;;;;;1.77;1.00;;;;;;;13.62;100.00;93602.88;5002139;28;20029;-88
2022/04/23 09:04:54;;;;;;;6.90;1.00;;;;;;;13.56;100.00;93604.88;4986170;28;20030;-89
2022/04/23 09:07:24;;;;;;;6.20;1.17;;;;;;;13.70;100.00;93604.75;4986487;28;20029;-90
2022/04/23 09:09:51;;;;;;;3.03;1.00;;;;;;;14.16;100.00;93612.44;4986007;28;20092;-91
2022/04/23 09:12:34;;;;;;;1.77;0.90;;;;;;;15.19;100.00;93613.81;4992353;28;20037;-93
2022/04/23 09:27:06;;;;;;;4.57;1.20;;;;;;;13.57;100.00;93613.53;5021456;28;20037;-93
2022/04/23 09:29:42;;;;;;;;;;;;;;;;;;;;;
2022/04/23 09:32:14;;;;;;;3.65;1.20;;;;;;;14.12;100.00;93619.41;5005026;28;20113;-93
2022/04/23 09:34:40;;;;;;;1.00;0.73;;;;;;;13.83;100.00;93616.25;4987496;28;20342;-92
2022/04/23 09:37:16;;;;;;;;;;;;;;;;;;;;;
2022/04/23 09:39:51;;;;;;;;;;;;;;;;;;;;;
2022/04/23 09:42:19;;;;;;;2.10;1.23;;;;;;;14.28;100.00;93620.53;5007138;28;20116;-93
2022/04/23 09:45:00;;;;;;;;;;;;;;;;;;;;;
2022/04/23 09:47:46;;;;;;;;;;;;;;;;;;;;;
2022/04/23 09:50:18;;;;;;;4.90;1.63;;;;;;;14.02;100.00;93619.69;5004537;28;20116;-92
2022/04/23 09:52:55;;;;;;;;;;;;;;;;;;;;;
2022/04/23 09:55:32;;;;;;;;;;;;;;;;;;;;;
2022/04/23 09:58:07;;;;;;;2.35;1.27;;;;;;;13.74;100.00;93639.16;5003050;28;20040;-93
2022/04/23 10:00:47;;;;;;;;;;;;;;;;;;;;;
2022/04/23 10:03:36;;;;;;;;;;;;;;;;;;;;;
2022/04/23 10:06:15;;;;;;;;;;;;;;;;;;;;;
2022/04/23 10:09:06;;;;;;;6.22;1.27;;;;;;;14.06;100.00;93650.41;5012790;28;20074;-93
2022/04/23 10:15:11;;;;;;;3.83;1.27;;;;;;;14.03;100.00;93643.13;4972236;28;20127;-93
2022/04/23 10:18:06;;;;;;;1.85;1.20;;;;;;;14.10;100.00;93647.94;4958078;29;20035;-92
2022/04/23 10:28:23;;;;;;;;;;;;;;;;;;;;;
2022/04/23 10:31:59;;;;;;;;;;;;;;;;;;;;;
2022/04/23 10:39:53;;;;;;;2.60;1.30;;;;;;;15.01;100.00;93633.41;5324792;23;20050;-92
2022/04/23 10:42:34;;;;;;;;;;;;;;;;;;;;;
2022/04/23 10:48:39;;;;;;;;;;;;;;;;;;;;;
2022/04/23 10:51:10;;;;;;;4.72;1.85;;;;;;;14.28;100.00;93651.38;5001818;28;20019;-91
2022/04/23 10:53:46;;;;;;;5.20;1.63;;;;;;;14.37;100.00;93641.59;4980268;28;20038;-93
2022/04/23 10:56:28;;;;;;;2.65;1.50;;;;;;;15.00;100.00;93637.91;4980431;28;20057;-91
2022/04/23 10:58:54;;;;;;;7.45;1.70;;;;;;;14.36;100.00;93634.78;4980645;28;20061;-89
2022/04/23 11:01:25;;;;;;;4.60;1.52;;;;;;;14.33;100.00;93639.91;4964857;28;20436;-88
2022/04/23 11:03:59;;;;;;;9.60;1.70;;;;;;;14.55;100.00;93615.25;5000203;28;20077;-88
2022/04/23 11:12:42;;;;;;;4.45;1.33;;;;;;;14.65;100.00;93619.47;5017509;28;20431;-91
2022/04/23 11:15:15;;;;;;;4.05;1.60;;;;;;;15.33;100.00;93623.41;4983369;28;20041;-90
2022/04/23 11:17:58;;;;;;;5.65;1.58;;;;;;;14.55;100.00;93616.03;4983728;28;20034;-89
2022/04/23 11:20:44;;;;;;;;;;;;;;;;;;;;;
2022/04/23 11:23:10;;;;;;;2.78;1.30;;;;;;;14.28;100.00;93627.66;5001640;28;20060;-89
2022/04/23 11:26:03;;;;;;;4.45;1.83;;;;;;;13.78;100.00;93637.47;5004354;28;20113;-88
2022/04/23 11:28:31;;;;;;;4.38;1.80;;;;;;;13.94;100.00;93616.75;4988726;28;20022;-89
2022/04/23 11:30:57;;;;;;;3.83;1.52;;;;;;;14.57;100.00;93603.31;4988086;28;20033;-89
2022/04/23 11:33:35;;;;;;;;;;;;;;;;;;;;;
2022/04/23 11:36:11;;;;;;;;;;;;;;;;;;;;;
2022/04/23 11:38:52;;;;;;;7.20;1.48;;;;;;;14.84;100.00;93619.16;5019690;28;20026;-89
2022/04/23 11:41:42;;;;;;;5.97;1.48;;;;;;;15.53;100.00;93614.03;5002143;28;20029;-89
2022/04/23 11:47:33;;;;;;;;;;;;;;;;;;;;;
2022/04/23 11:50:21;;;;;;;;;;;;;;;;;;;;;
2022/04/23 11:53:05;;;;;;;2.83;1.70;;;;;;;17.04;90.34;93582.88;5020873;28;20431;-90
2022/04/23 11:55:31;;;;;;;;;;;;;;;15.40;100.00;93587.53;5004035;28;20060;-88
2022/04/23 11:58:08;;;;;;;2.97;1.70;;;;;;;15.53;100.00;93593.66;4986951;28;20363;-89
2022/04/23 12:00:34;;;;;;;4.15;1.60;;;;;;;16.59;98.41;93581.69;4987755;28;20022;-88
2022/04/23 12:03:02;;;;;;;3.40;1.70;;;;;;;16.66;96.95;93584.63;5003436;28;20117;-89
2022/04/23 12:05:32;;;;;;;5.75;1.33;;;;;;;16.78;87.29;93576.69;4987130;28;20033;-89
2022/04/23 12:08:20;;;;;;;;;;;;;;;;;;;;;
2022/04/23 12:10:56;;;;;;;3.25;1.55;;;;;;;16.96;92.95;93568.63;5019442;28;20022;-90
2022/04/23 12:13:23;;;;;;;6.22;1.95;;;;;;;16.14;100.00;93570.69;4987055;28;20030;-91
2022/04/23 12:15:51;;;;;;;2.28;1.30;;;;;;;15.62;97.71;93569.88;4986716;28;20436;-89
2022/04/23 12:18:21;;;;;;;4.30;1.67;;;;;;;16.64;96.94;93568.28;4986844;28;20030;-88
2022/04/23 12:20:46;;;;;;;6.53;1.92;;;;;;;15.76;94.05;93553.03;5000813;28;20033;-89
2022/04/23 12:23:12;;;;;;;5.10;1.85;;;;;;;15.75;100.00;93557.53;5002907;28;20021;-90
2022/04/23 12:25:38;;;;;;;4.18;1.50;;;;;;;15.75;100.00;93560.19;4986331;28;20084;-91
2022/04/23 12:43:52;;;;;;;;;;;;;;;;;;;;;
2022/04/23 12:46:27;;;;;;;5.53;1.60;;;;;;;14.93;100.00;93542.69;5034230;28;20345;-92
2022/04/23 12:48:59;;;;;;;3.30;1.60;;;;;;;14.92;100.00;93544.53;5022083;28;20025;-91
2022/04/23 12:52:20;;;;;;;;;;;;;;;;;;;;;
2022/04/23 12:55:27;;;;;;;;;;;;;;;;;;;;;
2022/04/23 13:00:50;;;;;;;5.95;1.65;;;;;;;14.68;100.00;93513.38;5039020;28;20032;-88
2022/04/23 13:03:35;;;;;;;4.43;1.65;;;;;;;14.73;100.00;93523.03;5039416;28;20422;-91
2022/04/23 13:06:04;;;;;;;4.50;1.60;;;;;;;14.47;100.00;93513.25;5038065;28;20033;-89
2022/04/23 13:11:28;;;;;;;4.93;1.40;;;;;;;15.03;100.00;93515.94;5028332;28;20036;-87
2022/04/23 13:13:59;;;;;;;3.38;1.50;;;;;;;15.08;100.00;93522.91;5019680;28;20030;-90
2022/04/23 13:16:34;;;;;;;4.32;1.52;;;;;;;15.28;100.00;93521.44;5001860;28;20101;-91
2022/04/23 13:19:01;;;;;;;5.85;1.90;;;;;;;14.87;100.00;93522.81;5002689;28;20088;-91
2022/04/23 13:21:29;;;;;;;44.20;23.48;;;;;;;14.27;100.00;93523.34;5001531;28;20321;-88
2022/04/23 13:23:58;;;;;;;8.00;3.80;;;;;;;14.48;100.00;93502.38;5019194;28;20026;-88
2022/04/23 13:26:26;;;;;;;90.25;40.03;;;;;;;14.51;100.00;93516.81;5001682;28;20034;-87
2022/04/23 13:28:51;;;;;;;6.93;3.67;;;;;;;14.23;100.00;93517.94;5001792;28;20032;-90
2022/04/23 13:31:17;;;;;;;9.85;3.08;;;;;;;14.53;100.00;93520.69;5001259;28;20443;-91
2022/04/23 13:33:43;;;;;;;6.45;3.40;;;;;;;14.15;100.00;93518.69;5001108;28;20030;-92
2022/04/23 13:36:12;;;;;;;3.63;1.73;;;;;;;14.45;100.00;93510.16;4985243;28;20120;-90
2022/04/23 13:38:41;;;;;;;4.75;1.60;;;;;;;14.46;100.00;93512.47;5017715;28;20431;-89
2022/04/23 13:41:10;;;;;;;11.10;8.25;;;;;;;14.38;100.00;93511.41;5018789;28;20120;-88
2022/04/23 13:43:37;;;;;;;6.88;2.25;;;;;;;14.41;100.00;93504.75;5017262;28;20112;-88
2022/04/23 13:46:02;;;;;;;5.57;1.50;;;;;;;14.26;100.00;93504.13;5018611;28;20022;-89
2022/04/23 13:48:28;;;;;;;3.63;1.55;;;;;;;14.22;100.00;93507.69;5018602;28;20025;-88
2022/04/23 13:50:54;;;;;;;4.82;1.75;;;;;;;14.06;100.00;93496.84;5017604;28;20061;-89
2022/04/23 13:53:19;;;;;;;5.65;1.63;;;;;;;13.94;100.00;93506.16;5018487;28;20427;-90
2022/04/23 13:55:45;;;;;;;4.05;1.20;;;;;;;13.77;100.00;93498.22;5017509;28;20029;-89
2022/04/23 13:58:10;;;;;;;3.08;1.48;;;;;;;13.67;100.00;93500.09;5000901;28;20041;-88
2022/04/23 14:00:36;;;;;;;5.00;1.65;;;;;;;13.61;100.00;93498.69;5017529;28;20077;-89
2022/04/23 14:11:35;;;;;;;5.38;1.95;;;;;;;14.13;100.00;93476.88;5017872;28;20664;-89
2022/04/23 14:14:01;;;;;;;6.50;2.00;;;;;;;14.51;100.00;93474.66;5018345;28;20026;-90
2022/04/23 14:16:27;;;;;;;4.07;1.58;;;;;;;15.16;100.00;93476.47;4999962;28;20049;-89
2022/04/23 14:19:04;;;;;;;;;;;;;;;;;;;;;
2022/04/23 14:21:37;;;;;;;5.13;1.73;;;;;;;15.91;100.00;93478.53;5002034;28;20033;-89
2022/04/23 14:27:28;;;;;;;3.35;1.33;;;;;;;15.28;100.00;93479.22;5017664;28;20252;-89
2022/04/23 14:29:57;;;;;;;6.93;1.42;;;;;;;15.25;100.00;93477.97;4984613;28;20030;-91
2022/04/23 14:32:42;;;;;;;;;;;;;;;;;;;;;
2022/04/23 14:35:53;;;;;;;;;;;;;;;;;;;;;
2022/04/23 14:38:21;;;;;;;5.47;1.50;;;;;;;15.74;100.00;93474.13;5017329;28;20022;-91
2022/04/23 14:40:49;;;;;;;6.63;1.42;;;;;;;15.83;100.00;93466.16;5016497;28;20037;-88
2022/04/23 14:43:15;;;;;;;7.38;1.65;;;;;;;16.26;100.00;93477.47;5016390;28;20431;-91
2022/04/23 14:45:54;;;;;;;5.20;1.30;;;;;;;15.57;100.00;93479.53;5016559;28;20021;-89
2022/04/23 14:54:26;;;;;;;;;;;;;;;;;;;;;
2022/04/23 14:57:01;;;;;;;4.38;1.17;;;;;;;14.43;100.00;93460.41;5017264;28;20020;-89
2022/04/23 14:59:27;;;;;;;5.18;1.35;;;;;;;14.36;100.00;93458.25;5017878;28;20034;-91
2022/04/23 15:02:19;;;;;;;5.22;1.13;;;;;;;14.26;100.00;93450.66;5000499;28;20030;-92
2022/04/23 15:08:14;;;;;;;5.38;1.67;;;;;;;15.02;100.00;93445.81;5017500;28;20041;-94
2022/04/23 15:10:51;;;;;;;8.55;1.95;;;;;;;14.74;100.00;93435.69;5016770;28;20036;-94
2022/04/23 15:13:18;;;;;;;5.30;1.23;;;;;;;14.88;100.00;93435.50;5001701;28;20030;-92
2022/04/23 15:15:45;;;;;;;4.93;1.15;;;;;;;14.56;100.00;93442.84;5016434;28;20061;-91
2022/04/23 15:18:10;;;;;;;4.38;1.40;;;;;;;14.93;100.00;93437.94;5016393;28;20034;-92
2022/04/23 15:20:45;;;;;;;5.35;1.45;;;;;;;14.38;100.00;93447.41;5000798;28;20034;-91
2022/04/23 15:23:14;;;;;;;2.60;1.50;;;;;;;14.30;100.00;93440.28;5017956;28;20041;-93
2022/04/23 15:25:50;;;;;;;;;;;;;;;;;;;;;
2022/04/23 15:28:21;;;;;;;7.53;2.17;;;;;;;14.25;100.00;93447.25;5019169;28;20105;-92
2022/04/23 15:31:17;;;;;;;4.47;1.17;;;;;;;14.26;100.00;93456.72;5006557;28;20030;-95